Time;durP1;ratioP1;P1;durP2;ratioP2;P2;SDS_P1;SDS_P2;PMS_P1;PMS_P2;Temp;Humidity;BMP_temperature;BMP_pressure;BME280_temperature;BME280_humidity;BME280_pressure;Samples;Min_cycle;Max_cycle;Signal;HPM_P1;HPM_P2
2023/11/18 00:00:24;;;;;;;10.00;9.70;;;7.40;18.70;;;;;;5050470;28;20473;-78
2023/11/18 00:02:52;;;;;;;10.23;9.87;;;7.30;66.50;;;;;;5052653;28;20493;-77
2023/11/18 00:05:21;;;;;;;10.83;10.53;;;7.40;1.00;;;;;;5052107;28;20953;-77
2023/11/18 00:07:50;;;;;;;10.40;10.10;;;7.30;99.90;;;;;;5053809;28;20525;-76
2023/11/18 00:10:18;;;;;;;10.07;9.77;;;7.40;99.90;;;;;;5053993;28;20512;-78
2023/11/18 00:12:47;;;;;;;10.23;9.93;;;7.30;29.80;;;;;;5049949;28;20449;-79
2023/11/18 00:15:16;;;;;;;9.83;9.63;;;7.30;3.80;;;;;;5038744;28;20529;-78
2023/11/18 00:17:44;;;;;;;10.00;9.80;;;7.30;1.00;;;;;;5039687;28;20534;-79
2023/11/18 00:20:13;;;;;;;10.37;10.07;;;7.30;18.50;;;;;;5040159;28;20503;-79
2023/11/18 00:22:42;;;;;;;10.40;10.10;;;7.20;1.00;;;;;;5036263;28;21014;-77
2023/11/18 00:25:10;;;;;;;9.80;9.60;;;7.20;1.00;;;;;;5044463;28;20937;-78
2023/11/18 00:27:39;;;;;;;9.77;9.57;;;7.20;99.90;;;;;;5037143;28;20452;-78
2023/11/18 00:30:10;;;;;;;10.50;10.20;;;7.20;99.90;;;;;;5037635;28;20473;-77
2023/11/18 00:32:39;;;;;;;9.50;9.30;;;7.20;68.50;;;;;;5036996;28;20448;-77
2023/11/18 00:35:10;;;;;;;10.20;9.93;;;7.20;68.70;;;;;;5036625;28;20458;-77
2023/11/18 00:37:38;;;;;;;10.10;9.80;;;7.20;43.30;;;;;;5036739;28;20495;-80
2023/11/18 00:40:08;;;;;;;10.10;9.80;;;7.20;1.00;;;;;;5037592;28;20292;-79
2023/11/18 00:42:36;;;;;;;9.93;9.63;;;7.20;52.90;;;;;;5036496;28;21197;-80
2023/11/18 00:45:05;;;;;;;10.37;10.13;;;7.10;1.00;;;;;;5038713;28;20505;-80
2023/11/18 00:47:35;;;;;;;10.07;9.77;;;7.20;99.90;;;;;;5037893;28;20470;-78
2023/11/18 00:50:07;;;;;;;10.00;9.80;;;7.10;99.90;;;;;;5035795;28;20494;-78
2023/11/18 00:52:38;;;;;;;10.67;10.27;;;7.10;99.90;;;;;;5037162;28;20455;-78
2023/11/18 00:55:08;;;;;;;10.67;10.27;;;7.20;99.90;;;;;;5033085;28;20457;-78
2023/11/18 00:57:38;;;;;;;12.27;11.70;;;7.20;99.90;;;;;;5037117;28;20524;-79
2023/11/18 01:00:09;;;;;;;10.50;10.10;;;7.20;99.90;;;;;;5038875;28;20477;-78
2023/11/18 01:02:39;;;;;;;11.27;10.73;;;7.20;99.90;;;;;;5035204;28;20487;-78
2023/11/18 01:05:11;;;;;;;10.20;9.87;;;7.20;99.90;;;;;;5036946;28;20456;-78
2023/11/18 01:07:40;;;;;;;9.90;9.60;;;7.10;99.90;;;;;;5038830;28;20464;-78
2023/11/18 01:10:09;;;;;;;10.70;10.30;;;7.20;99.90;;;;;;5036888;28;20480;-78
2023/11/18 01:12:38;;;;;;;10.70;10.30;;;7.10;99.90;;;;;;5038480;28;20453;-78
2023/11/18 01:15:08;;;;;;;9.50;9.20;;;7.20;99.90;;;;;;5035214;28;20449;-79
2023/11/18 01:17:36;;;;;;;9.50;9.30;;;7.20;99.90;;;;;;5038014;28;20449;-78
2023/11/18 01:20:10;;;;;;;9.30;9.00;;;7.20;1.00;;;;;;5038692;28;20565;-78
2023/11/18 01:22:39;;;;;;;9.40;9.20;;;7.30;99.90;;;;;;5035245;28;20506;-78
2023/11/18 01:25:09;;;;;;;9.40;9.20;;;7.30;99.90;;;;;;5035932;28;20464;-78
2023/11/18 01:27:37;;;;;;;9.03;8.80;;;7.30;99.90;;;;;;5037884;28;20456;-78
2023/11/18 01:30:07;;;;;;;9.80;9.60;;;7.30;99.90;;;;;;5038388;28;20456;-78
2023/11/18 01:32:35;;;;;;;10.73;10.40;;;7.30;99.90;;;;;;5039641;28;20457;-77
2023/11/18 01:35:05;;;;;;;9.73;9.53;;;7.20;1.00;;;;;;5034281;28;20452;-79
2023/11/18 01:37:34;;;;;;;9.40;9.20;;;7.20;1.00;;;;;;5039074;28;20455;-79
2023/11/18 01:40:04;;;;;;;9.07;8.87;;;7.30;7.70;;;;;;5036453;28;20507;-78
2023/11/18 01:42:33;;;;;;;9.37;9.17;;;7.30;90.50;;;;;;5035973;28;20486;-79
2023/11/18 01:45:03;;;;;;;10.20;10.00;;;7.20;99.90;;;;;;5035522;28;20470;-77
2023/11/18 01:47:33;;;;;;;10.73;10.43;;;7.20;99.90;;;;;;5037194;28;20448;-77
2023/11/18 01:50:05;;;;;;;10.30;10.00;;;7.20;99.90;;;;;;5036388;28;20471;-79
2023/11/18 01:52:35;;;;;;;10.73;10.43;;;7.20;99.90;;;;;;5037771;28;20448;-78
2023/11/18 01:55:06;;;;;;;10.47;10.17;;;7.30;99.90;;;;;;5037119;28;20497;-78
2023/11/18 01:57:35;;;;;;;10.70;10.40;;;7.30;99.90;;;;;;5036005;28;20498;-77
2023/11/18 02:00:06;;;;;;;10.70;10.30;;;7.30;99.90;;;;;;5036724;28;20482;-79
2023/11/18 02:02:37;;;;;;;10.37;10.00;;;7.20;99.90;;;;;;5033906;28;20460;-77
2023/11/18 02:05:07;;;;;;;10.33;10.03;;;7.20;99.90;;;;;;5037696;28;20463;-77
2023/11/18 02:07:37;;;;;;;10.63;10.23;;;7.20;99.90;;;;;;5033999;28;20448;-77
2023/11/18 02:10:08;;;;;;;10.07;9.80;;;7.20;99.90;;;;;;5034430;28;21001;-79
2023/11/18 02:12:45;;;;;;;11.43;10.93;;;7.20;1.00;;;;;;5035338;28;20471;-80
2023/11/18 02:15:14;;;;;;;10.60;10.10;;;7.20;99.90;;;;;;5034088;28;20550;-79
2023/11/18 02:17:44;;;;;;;10.60;10.30;;;7.30;1.00;;;;;;5035316;28;20459;-79
2023/11/18 02:20:15;;;;;;;10.47;10.17;;;7.20;1.00;;;;;;5030076;28;20472;-77
2023/11/18 02:22:46;;;;;;;10.10;9.90;;;7.30;1.00;;;;;;5032655;28;20483;-79
2023/11/18 02:25:18;;;;;;;10.87;10.57;;;7.30;41.60;;;;;;5038562;28;20623;-77
2023/11/18 02:27:48;;;;;;;10.00;9.70;;;7.20;1.00;;;;;;5039389;28;20455;-79
2023/11/18 02:30:16;;;;;;;10.77;10.37;;;7.30;1.00;;;;;;5034465;28;20494;-78
2023/11/18 02:32:50;;;;;;;10.13;9.90;;;7.30;1.00;;;;;;5036016;28;21170;-78
2023/11/18 02:35:25;;;;;;;10.03;9.83;;;7.30;1.00;;;;;;5034370;28;20468;-79
2023/11/18 02:37:56;;;;;;;9.60;9.40;;;7.30;1.00;;;;;;5036100;28;20464;-79
2023/11/18 02:40:31;;;;;;;10.73;10.17;;;7.20;34.10;;;;;;5036307;28;20476;-79
2023/11/18 02:43:04;;;;;;;10.53;10.23;;;7.20;1.00;;;;;;5034818;28;20550;-78
2023/11/18 02:45:34;;;;;;;10.07;9.80;;;7.20;1.00;;;;;;5033617;28;20518;-79
2023/11/18 02:48:02;;;;;;;9.60;9.40;;;7.10;1.00;;;;;;5033549;28;20451;-79
2023/11/18 02:50:31;;;;;;;9.20;9.00;;;7.10;99.90;;;;;;5036400;28;20511;-79
2023/11/18 02:52:59;;;;;;;9.93;9.73;;;7.10;1.00;;;;;;5038556;28;20462;-79
2023/11/18 02:55:28;;;;;;;10.23;9.83;;;7.20;1.00;;;;;;5035903;28;20527;-80
2023/11/18 02:57:56;;;;;;;9.77;9.57;;;7.10;1.00;;;;;;5037383;28;20491;-79
2023/11/18 03:00:28;;;;;;;9.60;9.30;;;7.10;1.00;;;;;;5037407;28;20895;-79
2023/11/18 03:02:56;;;;;;;9.50;9.27;;;7.10;1.00;;;;;;5033108;28;20552;-79
2023/11/18 03:05:26;;;;;;;10.00;9.80;;;7.10;1.00;;;;;;5034623;28;20579;-78
2023/11/18 03:07:57;;;;;;;10.00;9.70;;;7.10;99.90;;;;;;5031149;28;20517;-80
2023/11/18 03:10:26;;;;;;;9.70;9.50;;;7.10;99.90;;;;;;5035266;28;20505;-79
2023/11/18 03:12:55;;;;;;;9.80;9.60;;;7.00;99.90;;;;;;5034552;28;20452;-78
2023/11/18 03:15:23;;;;;;;9.97;9.70;;;7.00;99.90;;;;;;5034576;28;20486;-78
2023/11/18 03:17:54;;;;;;;10.43;10.17;;;6.90;99.90;;;;;;5037930;28;20459;-81
2023/11/18 03:20:26;;;;;;;9.70;9.50;;;6.90;1.00;;;;;;5034414;28;20481;-77
2023/11/18 03:22:54;;;;;;;10.00;9.70;;;6.90;1.00;;;;;;5035581;28;20455;-79
2023/11/18 03:25:22;;;;;;;9.80;9.60;;;6.90;99.90;;;;;;5035336;28;20495;-78
2023/11/18 03:27:50;;;;;;;10.00;9.70;;;6.90;99.90;;;;;;5037120;28;20452;-78
2023/11/18 03:30:18;;;;;;;9.90;9.60;;;6.80;99.90;;;;;;5034932;28;20771;-79
2023/11/18 03:32:47;;;;;;;9.83;9.63;;;6.80;99.90;;;;;;5036359;28;20460;-79
2023/11/18 03:35:16;;;;;;;10.20;10.00;;;6.80;99.90;;;;;;5032478;28;20961;-78
2023/11/18 03:37:45;;;;;;;10.30;10.00;;;6.70;99.90;;;;;;5032582;28;20464;-80
2023/11/18 03:40:15;;;;;;;10.17;9.87;;;6.70;99.90;;;;;;5034011;28;20493;-78
2023/11/18 03:42:46;;;;;;;9.80;9.60;;;6.60;99.90;;;;;;5035607;28;20511;-79
2023/11/18 03:45:14;;;;;;;9.70;9.50;;;6.60;99.90;;;;;;5034406;28;20492;-78
2023/11/18 03:47:42;;;;;;;9.97;9.70;;;6.60;99.90;;;;;;5034448;28;20448;-78
2023/11/18 03:50:13;;;;;;;10.00;9.80;;;6.60;99.90;;;;;;5036768;28;20490;-80
2023/11/18 03:52:42;;;;;;;10.10;9.90;;;6.70;99.90;;;;;;5041027;28;20460;-79
2023/11/18 03:55:11;;;;;;;9.87;9.67;;;6.70;99.90;;;;;;5041851;28;20599;-78
2023/11/18 03:57:40;;;;;;;9.63;9.43;;;6.70;99.90;;;;;;5038391;28;20444;-79
2023/11/18 04:00:11;;;;;;;10.10;9.60;;;6.70;99.90;;;;;;5036755;28;20551;-78
2023/11/18 04:02:39;;;;;;;9.63;9.43;;;6.70;99.90;;;;;;5037492;28;20461;-77
2023/11/18 04:05:09;;;;;;;10.00;9.80;;;6.70;20.80;;;;;;5039502;28;20491;-79
2023/11/18 04:07:41;;;;;;;9.90;9.70;;;6.70;99.90;;;;;;5033918;28;20518;-78
2023/11/18 04:10:11;;;;;;;10.20;10.00;;;6.70;80.40;;;;;;5041721;28;20850;-79
2023/11/18 04:12:39;;;;;;;10.53;10.23;;;6.70;99.90;;;;;;5040922;28;20449;-77
2023/11/18 04:15:08;;;;;;;10.70;10.40;;;6.70;99.90;;;;;;5044786;28;20449;-79
2023/11/18 04:17:37;;;;;;;10.10;9.90;;;6.70;99.90;;;;;;5037313;28;20451;-80
2023/11/18 04:20:11;;;;;;;10.30;10.10;;;6.70;51.60;;;;;;5037481;28;20507;-78
2023/11/18 04:22:40;;;;;;;10.27;10.07;;;6.70;17.30;;;;;;5039728;28;20455;-80
2023/11/18 04:25:11;;;;;;;10.00;9.80;;;6.70;99.90;;;;;;5038328;28;20554;-80
2023/11/18 04:27:39;;;;;;;9.93;9.73;;;6.70;99.90;;;;;;5041364;28;20452;-81
2023/11/18 04:30:12;;;;;;;9.90;9.60;;;6.80;99.90;;;;;;5040075;28;20559;-78
2023/11/18 04:32:42;;;;;;;10.00;9.70;;;6.70;1.00;;;;;;5040431;28;21249;-78
2023/11/18 04:35:11;;;;;;;10.10;9.80;;;6.70;1.00;;;;;;5038009;28;20996;-78
2023/11/18 04:37:42;;;;;;;9.90;9.70;;;6.70;43.30;;;;;;5038037;28;20812;-78
2023/11/18 04:40:13;;;;;;;10.43;10.23;;;6.70;99.90;;;;;;5040238;28;20487;-79
2023/11/18 04:42:41;;;;;;;10.30;10.00;;;6.70;99.90;;;;;;5037548;28;20461;-81
2023/11/18 04:45:10;;;;;;;10.73;10.43;;;6.60;99.90;;;;;;5036518;28;20481;-81
2023/11/18 04:47:39;;;;;;;10.30;10.10;;;6.70;99.90;;;;;;5036364;28;21073;-78
2023/11/18 04:50:09;;;;;;;10.93;10.63;;;6.70;99.90;;;;;;5038518;28;20485;-78
2023/11/18 04:52:37;;;;;;;10.57;10.27;;;6.60;99.90;;;;;;5039032;28;20449;-79
2023/11/18 04:55:07;;;;;;;11.33;10.93;;;6.60;99.90;;;;;;5036852;28;20529;-78
2023/11/18 04:57:38;;;;;;;11.07;10.70;;;6.60;99.90;;;;;;5035299;28;20507;-78
2023/11/18 05:00:11;;;;;;;12.97;12.47;;;6.70;99.90;;;;;;5036988;28;20492;-78
2023/11/18 05:02:39;;;;;;;12.07;11.67;;;6.70;99.90;;;;;;5038309;28;20470;-79
2023/11/18 05:05:08;;;;;;;11.80;11.40;;;6.70;99.90;;;;;;5034593;28;20483;-78
2023/11/18 05:07:38;;;;;;;10.80;10.50;;;6.60;99.90;;;;;;5034685;28;20448;-78
2023/11/18 05:10:08;;;;;;;11.20;10.80;;;6.60;99.90;;;;;;5038112;28;20481;-78
2023/11/18 05:12:38;;;;;;;11.40;11.10;;;6.60;99.90;;;;;;5037845;28;21803;-79
2023/11/18 05:15:07;;;;;;;11.70;11.30;;;6.70;99.90;;;;;;5038204;28;20837;-79
2023/11/18 05:17:36;;;;;;;33.00;29.50;;;6.60;99.90;;;;;;5036304;28;20463;-79
2023/11/18 05:20:08;;;;;;;17.50;16.20;;;6.60;1.00;;;;;;5036478;28;21024;-79
2023/11/18 05:22:37;;;;;;;11.57;11.17;;;6.60;99.90;;;;;;5036324;28;20449;-78
2023/11/18 05:25:06;;;;;;;11.90;11.50;;;6.70;99.90;;;;;;5036335;28;20473;-78
2023/11/18 05:27:34;;;;;;;11.63;11.23;;;6.60;99.90;;;;;;5037608;28;20864;-78
2023/11/18 05:30:05;;;;;;;11.60;11.10;;;6.70;99.90;;;;;;5037603;28;20542;-78
2023/11/18 05:32:33;;;;;;;11.77;11.40;;;6.60;99.90;;;;;;5034000;28;20523;-79
2023/11/18 05:35:01;;;;;;;12.00;11.60;;;6.60;99.90;;;;;;5037266;28;20458;-79
2023/11/18 05:37:34;;;;;;;11.73;11.33;;;6.60;99.90;;;;;;5038979;28;20452;-81
2023/11/18 05:40:06;;;;;;;11.50;11.20;;;6.60;99.90;;;;;;5036950;28;20472;-78
2023/11/18 05:42:36;;;;;;;11.03;10.67;;;6.60;99.90;;;;;;5039451;28;20464;-78
2023/11/18 05:45:17;;;;;;;12.10;11.60;;;6.70;99.90;;;;;;5036771;28;20483;-79
2023/11/18 05:47:45;;;;;;;11.10;10.80;;;6.70;99.90;;;;;;5034807;28;20614;-78
2023/11/18 05:50:14;;;;;;;11.20;10.90;;;6.70;99.90;;;;;;5037425;28;20978;-79
2023/11/18 05:52:43;;;;;;;12.20;11.70;;;6.70;99.90;;;;;;5037565;28;20515;-78
2023/11/18 05:55:11;;;;;;;12.03;11.57;;;6.70;99.90;;;;;;5037571;28;20459;-81
2023/11/18 05:57:39;;;;;;;12.00;11.60;;;6.60;99.90;;;;;;5037417;28;20982;-78
2023/11/18 06:00:12;;;;;;;12.23;11.63;;;6.60;99.90;;;;;;5038445;28;20460;-79
2023/11/18 06:02:40;;;;;;;12.23;11.73;;;6.60;1.00;;;;;;5037958;28;20487;-78
2023/11/18 06:05:09;;;;;;;11.50;11.07;;;6.50;99.90;;;;;;5035395;28;20468;-79
2023/11/18 06:07:39;;;;;;;11.47;11.07;;;6.60;99.90;;;;;;5036393;28;20461;-78
2023/11/18 06:10:08;;;;;;;11.10;10.80;;;6.50;99.90;;;;;;5036369;28;20476;-79
2023/11/18 06:12:40;;;;;;;11.97;11.53;;;6.50;99.90;;;;;;5035300;28;20459;-78
2023/11/18 06:15:14;;;;;;;12.10;11.70;;;6.50;1.00;;;;;;5039708;28;20448;-77
2023/11/18 06:17:45;;;;;;;12.67;12.17;;;6.50;99.90;;;;;;5038782;28;20451;-81
2023/11/18 06:20:14;;;;;;;13.30;12.60;;;6.50;99.90;;;;;;5036119;28;20487;-78
2023/11/18 06:22:42;;;;;;;12.23;11.70;;;6.50;99.90;;;;;;5035610;28;21182;-78
2023/11/18 06:25:12;;;;;;;12.70;12.10;;;6.50;99.90;;;;;;5037104;28;20533;-78
2023/11/18 06:27:41;;;;;;;13.60;13.00;;;6.50;99.90;;;;;;5037398;28;20525;-81
2023/11/18 06:30:12;;;;;;;13.13;12.57;;;6.50;99.90;;;;;;5038717;28;20843;-80
2023/11/18 06:32:40;;;;;;;13.30;12.70;;;6.40;99.90;;;;;;5039850;28;20537;-75
2023/11/18 06:35:09;;;;;;;13.30;12.53;;;6.40;99.90;;;;;;5038394;28;21231;-80
2023/11/18 06:37:37;;;;;;;13.10;12.60;;;6.40;99.90;;;;;;5033535;28;20479;-79
2023/11/18 06:40:16;;;;;;;12.93;12.30;;;6.40;99.90;;;;;;5035518;28;20553;-77
2023/11/18 06:42:46;;;;;;;13.73;13.03;;;6.40;99.90;;;;;;5033626;28;20459;-79
2023/11/18 06:45:16;;;;;;;13.47;12.97;;;6.40;99.90;;;;;;5034968;28;21242;-78
2023/11/18 06:47:45;;;;;;;14.63;13.50;;;6.40;99.90;;;;;;5036666;28;21028;-78
2023/11/18 06:50:15;;;;;;;13.80;13.20;;;6.40;99.90;;;;;;5037692;28;20475;-79
2023/11/18 06:52:44;;;;;;;14.23;13.53;;;6.40;99.90;;;;;;5037455;28;20447;-77
2023/11/18 06:55:16;;;;;;;13.70;13.03;;;6.40;99.90;;;;;;5034906;28;20452;-78
2023/11/18 06:57:44;;;;;;;13.47;12.90;;;6.40;60.30;;;;;;5038559;28;20480;-77
2023/11/18 07:00:14;;;;;;;13.60;12.97;;;6.40;4.50;;;;;;5039722;28;20489;-78
2023/11/18 07:02:43;;;;;;;13.40;12.80;;;6.50;1.00;;;;;;5036518;28;20482;-78
2023/11/18 07:05:12;;;;;;;13.80;13.10;;;6.40;1.00;;;;;;5036539;28;20453;-80
2023/11/18 07:07:40;;;;;;;13.27;12.77;;;6.40;99.90;;;;;;5033028;28;20472;-79
2023/11/18 07:10:12;;;;;;;13.57;12.87;;;6.30;99.90;;;;;;5034442;28;21107;-80
2023/11/18 07:12:40;;;;;;;13.93;13.30;;;6.40;99.90;;;;;;5035599;28;20507;-78
2023/11/18 07:15:10;;;;;;;13.60;13.00;;;6.40;99.90;;;;;;5034613;28;20459;-79
2023/11/18 07:17:38;;;;;;;13.27;12.77;;;6.50;99.90;;;;;;5037685;28;21186;-79
2023/11/18 07:20:11;;;;;;;15.90;13.40;;;6.50;99.90;;;;;;5039150;28;20485;-78
2023/11/18 07:22:40;;;;;;;13.30;12.70;;;6.60;97.50;;;;;;5035746;28;20548;-79
2023/11/18 07:25:09;;;;;;;12.97;12.40;;;6.60;63.80;;;;;;5037826;28;20448;-80
2023/11/18 07:27:37;;;;;;;12.73;12.23;;;6.60;1.00;;;;;;5044103;28;20487;-79
2023/11/18 07:30:10;;;;;;;14.30;13.23;;;6.70;42.80;;;;;;5041781;28;20468;-79
2023/11/18 07:32:38;;;;;;;13.57;12.97;;;6.70;1.00;;;;;;5037896;28;20464;-81
2023/11/18 07:35:09;;;;;;;13.50;12.60;;;6.70;1.00;;;;;;5038156;28;20456;-77
2023/11/18 07:37:38;;;;;;;12.77;12.17;;;6.70;1.00;;;;;;5039444;28;20455;-78
2023/11/18 07:40:07;;;;;;;13.13;12.53;;;6.70;1.00;;;;;;5039507;28;20507;-77
2023/11/18 07:42:35;;;;;;;12.53;12.03;;;6.80;1.00;;;;;;5039798;28;20464;-76
2023/11/18 07:45:04;;;;;;;12.83;12.23;;;6.80;1.00;;;;;;5040875;28;20459;-76
2023/11/18 07:47:32;;;;;;;12.47;11.97;;;6.90;1.00;;;;;;5038027;28;20481;-78
2023/11/18 07:50:04;;;;;;;13.50;12.80;;;7.00;99.90;;;;;;5030635;28;20475;-77
2023/11/18 07:52:34;;;;;;;13.50;12.60;;;7.00;99.90;;;;;;5041019;28;20879;-77
2023/11/18 07:55:03;;;;;;;12.90;12.37;;;7.10;99.90;;;;;;5041495;28;20467;-77
2023/11/18 07:57:36;;;;;;;12.70;12.20;;;7.10;99.90;;;;;;5042638;28;20471;-77
2023/11/18 08:00:08;;;;;;;13.00;12.40;;;7.10;99.90;;;;;;5039864;28;20529;-76
2023/11/18 08:02:38;;;;;;;13.50;13.00;;;7.10;99.90;;;;;;5037313;28;20464;-78
2023/11/18 08:05:08;;;;;;;13.27;12.73;;;7.10;99.90;;;;;;5039178;28;21006;-77
2023/11/18 08:07:38;;;;;;;12.10;11.60;;;7.10;45.90;;;;;;5034764;28;20502;-77
2023/11/18 08:10:12;;;;;;;13.20;12.70;;;7.10;99.90;;;;;;5039850;28;20471;-77
2023/11/18 08:12:41;;;;;;;12.87;12.37;;;7.10;99.90;;;;;;5039083;28;20545;-79
2023/11/18 08:15:09;;;;;;;11.97;11.57;;;7.10;99.90;;;;;;5039661;28;20459;-77
2023/11/18 08:17:37;;;;;;;12.70;11.97;;;7.10;99.90;;;;;;5043212;28;20536;-78
2023/11/18 08:20:13;;;;;;;13.47;12.77;;;7.10;99.90;;;;;;5036613;28;20553;-77
2023/11/18 08:22:44;;;;;;;11.83;11.43;;;7.10;99.90;;;;;;5032106;28;20450;-80
2023/11/18 08:25:14;;;;;;;12.03;11.63;;;7.10;99.90;;;;;;5035311;28;20457;-78
2023/11/18 08:27:43;;;;;;;10.80;10.50;;;7.10;99.90;;;;;;5038347;28;20476;-77
2023/11/18 08:30:12;;;;;;;11.20;10.83;;;7.20;99.90;;;;;;5036727;28;20877;-79
2023/11/18 08:32:43;;;;;;;11.93;11.30;;;7.20;99.90;;;;;;5037487;28;21065;-78
2023/11/18 08:35:13;;;;;;;11.30;10.90;;;7.10;89.50;;;;;;5035208;28;20198;-80
2023/11/18 08:37:44;;;;;;;11.43;11.03;;;7.10;99.90;;;;;;5037260;28;20820;-81
2023/11/18 08:40:15;;;;;;;11.17;10.77;;;7.20;99.90;;;;;;5040726;28;20499;-79
2023/11/18 08:42:47;;;;;;;10.97;10.67;;;7.20;99.90;;;;;;5041840;28;20463;-79
2023/11/18 08:45:18;;;;;;;11.53;11.10;;;7.30;99.90;;;;;;5037378;28;20963;-78
2023/11/18 08:47:47;;;;;;;11.23;10.93;;;7.30;1.00;;;;;;5042172;28;20564;-78
2023/11/18 08:50:16;;;;;;;11.00;10.50;;;7.30;1.00;;;;;;5037758;28;20473;-78
2023/11/18 08:52:47;;;;;;;10.93;10.70;;;7.30;1.00;;;;;;5044113;28;20448;-79
2023/11/18 08:55:19;;;;;;;11.20;10.90;;;7.40;1.00;;;;;;5042339;28;20550;-79
2023/11/18 08:57:52;;;;;;;11.90;11.40;;;7.40;1.00;;;;;;5042897;28;20975;-78
2023/11/18 09:03:05;;;;;;;10.50;10.10;;;7.40;99.90;;;;;;5038781;28;20489;-77
2023/11/18 09:05:35;;;;;;;11.27;10.87;;;7.40;1.00;;;;;;5037308;28;20471;-80
2023/11/18 09:08:05;;;;;;;10.13;9.83;;;7.50;1.00;;;;;;5041366;28;20569;-78
2023/11/18 09:10:34;;;;;;;11.70;10.90;;;7.50;1.00;;;;;;5038162;28;20828;-78
2023/11/18 09:13:03;;;;;;;10.60;10.13;;;7.50;99.90;;;;;;5035953;28;20504;-77
2023/11/18 09:15:31;;;;;;;10.20;9.90;;;7.60;99.90;;;;;;5036106;28;20455;-79
2023/11/18 09:18:00;;;;;;;10.37;10.03;;;7.70;99.90;;;;;;5040320;28;20535;-79
2023/11/18 09:20:29;;;;;;;9.90;9.70;;;7.80;99.90;;;;;;5037441;28;20524;-78
2023/11/18 09:22:58;;;;;;;10.63;10.13;;;7.90;99.90;;;;;;5040410;28;20452;-78
2023/11/18 09:25:27;;;;;;;10.30;9.90;;;7.90;99.90;;;;;;5038530;28;20456;-79
2023/11/18 09:27:55;;;;;;;10.33;9.93;;;8.00;99.90;;;;;;5039350;28;20485;-76
2023/11/18 09:30:24;;;;;;;10.10;9.80;;;8.00;99.90;;;;;;5040477;28;20514;-78
2023/11/18 09:32:54;;;;;;;10.23;9.93;;;8.00;99.90;;;;;;5041365;28;20547;-78
2023/11/18 09:35:23;;;;;;;10.17;9.87;;;8.00;99.90;;;;;;5038839;28;20510;-77
2023/11/18 09:37:52;;;;;;;10.23;10.03;;;8.00;99.90;;;;;;5037612;28;20460;-78
2023/11/18 09:40:24;;;;;;;9.87;9.50;;;8.10;99.90;;;;;;5034631;28;20465;-79
2023/11/18 09:42:58;;;;;;;9.77;9.47;;;8.10;99.90;;;;;;5042465;28;20973;-78
2023/11/18 09:45:26;;;;;;;9.37;9.17;;;8.20;99.90;;;;;;5038454;28;20543;-76
2023/11/18 09:47:54;;;;;;;9.90;9.70;;;8.20;44.90;;;;;;5035023;28;20468;-77
2023/11/18 09:50:29;;;;;;;9.53;9.33;;;8.20;2.60;;;;;;5037786;28;20563;-79
2023/11/18 09:53:05;;;;;;;10.27;9.97;;;8.40;76.20;;;;;;5039571;28;20486;-77
2023/11/18 09:55:43;;;;;;;9.87;9.57;;;8.60;1.00;;;;;;5035844;28;20455;-79
2023/11/18 09:58:23;;;;;;;9.37;8.83;;;8.70;1.00;;;;;;5037377;28;20534;-77
2023/11/18 10:01:02;;;;;;;8.87;8.57;;;8.60;1.00;;;;;;5035936;28;20483;-77
2023/11/18 10:03:30;;;;;;;9.10;8.90;;;8.50;1.00;;;;;;5039164;28;20460;-77
2023/11/18 10:06:04;;;;;;;9.63;9.33;;;8.60;1.00;;;;;;5034251;28;21697;-76
2023/11/18 10:08:32;;;;;;;8.77;8.47;;;8.70;1.00;;;;;;5035073;28;20574;-77
2023/11/18 10:11:08;;;;;;;9.47;9.00;;;8.70;1.00;;;;;;5038010;28;20462;-78
2023/11/18 10:13:40;;;;;;;8.83;8.63;;;8.70;1.00;;;;;;5041963;28;21171;-78
2023/11/18 10:16:09;;;;;;;8.93;8.70;;;8.50;1.00;;;;;;5038365;28;20451;-77
2023/11/18 10:18:48;;;;;;;9.80;9.40;;;8.60;1.00;;;;;;5035970;28;20463;-78
2023/11/18 10:21:18;;;;;;;9.23;9.03;;;8.50;1.00;;;;;;5037374;28;20475;-78
2023/11/18 10:24:02;;;;;;;8.90;8.60;;;8.40;1.00;;;;;;5039146;28;20540;-76
2023/11/18 10:26:31;;;;;;;9.43;9.23;;;8.40;1.00;;;;;;5034944;28;20465;-79
2023/11/18 10:29:07;;;;;;;9.30;9.10;;;8.60;1.00;;;;;;5038224;28;20480;-78
2023/11/18 10:31:37;;;;;;;9.50;9.30;;;8.60;1.00;;;;;;5034527;28;20551;-77
2023/11/18 10:34:06;;;;;;;9.80;9.50;;;8.60;1.00;;;;;;5038749;28;20483;-78
2023/11/18 10:36:36;;;;;;;9.10;8.90;;;8.50;1.00;;;;;;5039769;28;20453;-76
2023/11/18 10:39:13;;;;;;;9.40;9.10;;;8.60;1.00;;;;;;5034178;28;20835;-78
2023/11/18 10:41:43;;;;;;;8.97;8.57;;;8.70;1.00;;;;;;5035244;28;20205;-79
2023/11/18 10:44:15;;;;;;;9.77;9.13;;;8.70;1.00;;;;;;5037158;28;20460;-77
2023/11/18 10:46:53;;;;;;;8.40;8.20;;;8.60;1.00;;;;;;5036217;28;20539;-76
2023/11/18 10:49:22;;;;;;;8.20;8.00;;;8.60;1.00;;;;;;5036237;28;20570;-80
2023/11/18 10:51:52;;;;;;;8.63;8.33;;;8.50;1.00;;;;;;5036823;28;21150;-78
2023/11/18 10:54:21;;;;;;;8.80;8.30;;;8.50;1.00;;;;;;5037537;28;20966;-77
2023/11/18 10:56:49;;;;;;;8.40;8.10;;;8.50;1.00;;;;;;5036697;28;20574;-78
2023/11/18 10:59:19;;;;;;;9.50;9.13;;;8.60;1.00;;;;;;5035757;28;20468;-78
2023/11/18 11:01:48;;;;;;;9.17;8.67;;;8.60;1.00;;;;;;5036910;28;20550;-77
2023/11/18 11:04:20;;;;;;;8.60;8.40;;;8.60;1.00;;;;;;5038768;28;20457;-76
2023/11/18 11:06:53;;;;;;;9.30;9.10;;;8.60;1.00;;;;;;5039988;28;20456;-79
2023/11/18 11:09:26;;;;;;;8.70;8.50;;;8.50;1.00;;;;;;5037819;28;21045;-78
2023/11/18 11:12:03;;;;;;;10.40;10.10;;;8.50;1.00;;;;;;5039857;28;20460;-75
2023/11/18 11:14:36;;;;;;;9.10;8.80;;;8.60;1.00;;;;;;5033646;28;20445;-76
2023/11/18 11:17:12;;;;;;;9.23;9.03;;;8.60;1.00;;;;;;5043372;28;20503;-76
2023/11/18 11:19:55;;;;;;;8.40;8.20;;;8.60;1.00;;;;;;5036549;28;20490;-76
2023/11/18 11:22:29;;;;;;;8.97;8.67;;;8.60;1.00;;;;;;5035542;28;20463;-78
2023/11/18 11:25:11;;;;;;;8.10;7.90;;;8.70;1.00;;;;;;5039325;28;20447;-76
2023/11/18 11:27:51;;;;;;;9.20;8.40;;;8.70;1.00;;;;;;5037987;28;20472;-78
2023/11/18 11:30:25;;;;;;;9.90;9.70;;;8.60;1.00;;;;;;5036653;28;20576;-79
2023/11/18 11:32:57;;;;;;;10.43;10.03;;;8.70;1.00;;;;;;5037904;28;20546;-76
2023/11/18 11:35:32;;;;;;;10.87;10.47;;;8.70;1.00;;;;;;5036965;28;20456;-76
2023/11/18 11:38:09;;;;;;;11.50;10.90;;;8.70;1.00;;;;;;5040395;28;20543;-76
2023/11/18 11:40:38;;;;;;;10.33;9.90;;;8.70;1.00;;;;;;5038462;28;20467;-76
2023/11/18 11:43:10;;;;;;;9.03;8.63;;;8.60;1.00;;;;;;5037874;28;20457;-78
2023/11/18 11:45:40;;;;;;;9.10;8.90;;;8.60;1.00;;;;;;5038662;28;20460;-78
2023/11/18 11:48:16;;;;;;;8.80;8.50;;;8.60;1.00;;;;;;5037119;28;20497;-79
2023/11/18 11:51:14;;;;;;;8.20;8.00;;;8.60;1.00;;;;;;5041544;28;20482;-79
2023/11/18 11:53:53;;;;;;;8.43;8.13;;;8.60;1.00;;;;;;5040394;28;21241;-80
2023/11/18 11:56:24;;;;;;;8.00;7.80;;;8.50;1.00;;;;;;5033949;28;20445;-78
2023/11/18 11:58:53;;;;;;;9.60;9.30;;;8.50;1.00;;;;;;5035566;28;20478;-77
2023/11/18 12:01:32;;;;;;;9.73;9.53;;;8.50;1.00;;;;;;5037797;28;20457;-77
2023/11/18 12:04:06;;;;;;;10.10;9.60;;;8.50;1.00;;;;;;5034363;28;20466;-79
2023/11/18 12:06:42;;;;;;;9.83;9.43;;;8.50;1.00;;;;;;5034293;28;20443;-78
2023/11/18 12:09:11;;;;;;;10.03;9.73;;;8.50;1.00;;;;;;5040625;28;20490;-78
2023/11/18 12:11:45;;;;;;;9.57;9.30;;;8.50;1.00;;;;;;5042964;28;20470;-79
2023/11/18 12:14:32;;;;;;;10.37;10.00;;;8.40;1.00;;;;;;5040003;28;20466;-77
2023/11/18 12:17:09;;;;;;;10.23;9.83;;;8.50;1.00;;;;;;5042599;28;20447;-77
2023/11/18 12:19:46;;;;;;;9.97;9.67;;;8.50;1.00;;;;;;5044780;28;20467;-80
2023/11/18 12:22:24;;;;;;;9.50;9.30;;;8.50;1.00;;;;;;5042248;28;20458;-79
2023/11/18 12:25:36;;;;;;;9.93;9.63;;;8.50;1.00;;;;;;5038471;28;20446;-77
2023/11/18 12:28:11;;;;;;;9.70;9.30;;;8.50;1.00;;;;;;5039084;28;20455;-77
2023/11/18 12:30:43;;;;;;;9.90;9.60;;;8.50;1.00;;;;;;5041898;28;20463;-78
2023/11/18 12:33:18;;;;;;;10.03;9.73;;;8.50;1.00;;;;;;5044704;28;20973;-80
2023/11/18 12:36:19;;;;;;;9.77;9.47;;;8.50;1.00;;;;;;5043012;28;20983;-77
2023/11/18 12:39:17;;;;;;;9.80;9.50;;;8.50;1.00;;;;;;5035868;28;20452;-79
2023/11/18 12:41:56;;;;;;;10.00;9.60;;;8.50;1.00;;;;;;5037133;28;20453;-78
2023/11/18 12:44:32;;;;;;;9.67;9.37;;;8.40;1.00;;;;;;5039263;28;20441;-78
2023/11/18 12:47:14;;;;;;;9.83;9.60;;;8.40;1.00;;;;;;5046722;28;21231;-80
2023/11/18 12:49:44;;;;;;;11.00;10.70;;;8.40;15.70;;;;;;5038617;28;21020;-79
2023/11/18 12:52:14;;;;;;;10.17;9.80;;;8.40;56.40;;;;;;5041071;28;20944;-78
2023/11/18 12:54:43;;;;;;;10.23;9.87;;;8.40;86.50;;;;;;5038326;28;20563;-79
2023/11/18 12:57:14;;;;;;;10.67;10.27;;;8.50;99.90;;;;;;5037893;28;20460;-79
2023/11/18 12:59:43;;;;;;;10.50;10.20;;;8.50;99.90;;;;;;5041588;28;20476;-81
2023/11/18 13:02:18;;;;;;;10.87;10.57;;;8.50;99.90;;;;;;5039572;28;20479;-78
2023/11/18 13:04:49;;;;;;;11.20;10.90;;;8.40;99.90;;;;;;5036916;28;20496;-77
2023/11/18 13:07:19;;;;;;;11.82;11.43;;;8.40;99.90;;;;;;5037257;28;20455;-77
2023/11/18 13:09:47;;;;;;;11.67;11.27;;;8.40;99.90;;;;;;5040736;28;20233;-77